Forside
METAR-TAF:

METAR-TAF

Lufthavne :

Sunlight Mountain, Colorado, USA

Breddekreds: 39-25-32N, længdekreds: 107-22-45W, højde: 3232 m

Aktuelle vejr

Denne rapport blev lavet for 42 minutter siden, kl. 06:42 UTC
Vind 10 kt fra sydvest med vindstød på up til 15 kt
Temperatur -6°C
Fugtighed 49%
Tryk 1026 hPa
Sigt: 16.1 km
skyfri

METAR: K5SM 290642Z AUTO 22010G15KT 10SM CLR M06/M15 A3031 RMK AO2

Tid: 00:24 (07:24 UTC)


TAF: fraværende

Vejrobservationer og prognoser fra mere end 4000 lufthavne (METAR og TAF).

De gule og røde prikker repræsenterer de meteorologiske stationer.

Flyt musen over at se navnet på stationen.

Så klik over at se vejr observationer og prognoser.

At skifte det kort: Klik på de grønne knapper med et sort kors for at zoome ind; på den grønne knap med en bindestreg for at zoome ud; eller på de grønne pile for tilstødende kort.


METAR-TAF: